sensor_id;sensor_type;location;lat;lon;timestamp;P1;durP1;ratioP1;P2;durP2;ratioP2
56083;SDS011;41958;52.416;13.428;2022-07-23T00:00:44;9.70;;;6.70;;
56083;SDS011;41958;52.416;13.428;2022-07-23T00:03:10;9.05;;;6.95;;
56083;SDS011;41958;52.416;13.428;2022-07-23T00:05:35;9.65;;;6.75;;
56083;SDS011;41958;52.416;13.428;2022-07-23T00:08:00;8.35;;;6.60;;
56083;SDS011;41958;52.416;13.428;2022-07-23T00:10:26;10.07;;;6.95;;
56083;SDS011;41958;52.416;13.428;2022-07-23T00:12:51;9.55;;;6.57;;
56083;SDS011;41958;52.416;13.428;2022-07-23T00:15:16;9.25;;;6.82;;
56083;SDS011;41958;52.416;13.428;2022-07-23T00:17:42;8.95;;;6.90;;
56083;SDS011;41958;52.416;13.428;2022-07-23T00:20:07;8.02;;;6.22;;
56083;SDS011;41958;52.416;13.428;2022-07-23T00:22:33;7.95;;;6.28;;
56083;SDS011;41958;52.416;13.428;2022-07-23T00:24:58;9.02;;;6.72;;
56083;SDS011;41958;52.416;13.428;2022-07-23T00:27:23;8.10;;;6.15;;
56083;SDS011;41958;52.416;13.428;2022-07-23T00:29:48;8.70;;;5.95;;
56083;SDS011;41958;52.416;13.428;2022-07-23T00:32:14;6.85;;;6.10;;
56083;SDS011;41958;52.416;13.428;2022-07-23T00:34:39;8.93;;;6.30;;
56083;SDS011;41958;52.416;13.428;2022-07-23T00:37:05;8.35;;;6.10;;
56083;SDS011;41958;52.416;13.428;2022-07-23T00:39:30;8.63;;;5.97;;
56083;SDS011;41958;52.416;13.428;2022-07-23T00:41:55;6.50;;;5.60;;
56083;SDS011;41958;52.416;13.428;2022-07-23T00:44:21;9.18;;;5.93;;
56083;SDS011;41958;52.416;13.428;2022-07-23T00:46:52;8.68;;;6.22;;
56083;SDS011;41958;52.416;13.428;2022-07-23T00:49:20;6.68;;;5.70;;
56083;SDS011;41958;52.416;13.428;2022-07-23T00:51:49;9.55;;;5.97;;
56083;SDS011;41958;52.416;13.428;2022-07-23T00:54:15;7.45;;;6.22;;
56083;SDS011;41958;52.416;13.428;2022-07-23T00:56:43;7.75;;;5.68;;
56083;SDS011;41958;52.416;13.428;2022-07-23T00:59:09;9.55;;;5.50;;
56083;SDS011;41958;52.416;13.428;2022-07-23T01:01:34;8.70;;;6.30;;
56083;SDS011;41958;52.416;13.428;2022-07-23T01:04:00;7.65;;;5.68;;
56083;SDS011;41958;52.416;13.428;2022-07-23T01:06:25;10.07;;;5.85;;
56083;SDS011;41958;52.416;13.428;2022-07-23T01:08:50;6.85;;;5.50;;
56083;SDS011;41958;52.416;13.428;2022-07-23T01:11:16;8.88;;;6.15;;
56083;SDS011;41958;52.416;13.428;2022-07-23T01:13:43;8.57;;;5.85;;
56083;SDS011;41958;52.416;13.428;2022-07-23T01:16:08;8.70;;;5.43;;
56083;SDS011;41958;52.416;13.428;2022-07-23T01:18:34;10.68;;;6.25;;
56083;SDS011;41958;52.416;13.428;2022-07-23T01:20:59;7.10;;;5.75;;
56083;SDS011;41958;52.416;13.428;2022-07-23T01:23:24;6.25;;;5.25;;
56083;SDS011;41958;52.416;13.428;2022-07-23T01:25:53;6.90;;;5.30;;
56083;SDS011;41958;52.416;13.428;2022-07-23T01:28:19;8.10;;;5.70;;
56083;SDS011;41958;52.416;13.428;2022-07-23T01:30:44;9.50;;;6.25;;
56083;SDS011;41958;52.416;13.428;2022-07-23T01:33:10;9.70;;;5.35;;
56083;SDS011;41958;52.416;13.428;2022-07-23T01:35:36;9.38;;;5.82;;
56083;SDS011;41958;52.416;13.428;2022-07-23T01:38:01;7.53;;;5.82;;
56083;SDS011;41958;52.416;13.428;2022-07-23T01:40:26;6.25;;;5.18;;
56083;SDS011;41958;52.416;13.428;2022-07-23T01:42:52;6.88;;;5.50;;
56083;SDS011;41958;52.416;13.428;2022-07-23T01:45:17;6.90;;;5.00;;
56083;SDS011;41958;52.416;13.428;2022-07-23T01:47:42;7.22;;;5.60;;
56083;SDS011;41958;52.416;13.428;2022-07-23T01:50:08;7.30;;;5.20;;
56083;SDS011;41958;52.416;13.428;2022-07-23T01:52:33;8.20;;;5.32;;
56083;SDS011;41958;52.416;13.428;2022-07-23T01:54:58;7.20;;;5.00;;
56083;SDS011;41958;52.416;13.428;2022-07-23T01:57:24;7.18;;;5.68;;
56083;SDS011;41958;52.416;13.428;2022-07-23T01:59:49;6.30;;;5.18;;
56083;SDS011;41958;52.416;13.428;2022-07-23T02:02:14;7.57;;;5.50;;
56083;SDS011;41958;52.416;13.428;2022-07-23T02:04:39;7.05;;;5.35;;
56083;SDS011;41958;52.416;13.428;2022-07-23T02:07:05;6.00;;;5.40;;
56083;SDS011;41958;52.416;13.428;2022-07-23T02:09:30;7.15;;;5.43;;
56083;SDS011;41958;52.416;13.428;2022-07-23T02:11:56;7.82;;;5.70;;
56083;SDS011;41958;52.416;13.428;2022-07-23T02:14:21;7.47;;;5.40;;
56083;SDS011;41958;52.416;13.428;2022-07-23T02:16:46;6.82;;;5.38;;
56083;SDS011;41958;52.416;13.428;2022-07-23T02:19:12;5.78;;;5.15;;
56083;SDS011;41958;52.416;13.428;2022-07-23T02:21:37;6.35;;;5.25;;
56083;SDS011;41958;52.416;13.428;2022-07-23T02:24:02;7.18;;;5.43;;
56083;SDS011;41958;52.416;13.428;2022-07-23T02:26:28;6.68;;;5.47;;
56083;SDS011;41958;52.416;13.428;2022-07-23T02:28:53;7.78;;;5.70;;
56083;SDS011;41958;52.416;13.428;2022-07-23T02:31:19;6.25;;;5.30;;
56083;SDS011;41958;52.416;13.428;2022-07-23T02:33:45;6.82;;;5.75;;
56083;SDS011;41958;52.416;13.428;2022-07-23T02:36:10;8.35;;;5.43;;
56083;SDS011;41958;52.416;13.428;2022-07-23T02:38:35;6.28;;;5.60;;
56083;SDS011;41958;52.416;13.428;2022-07-23T02:41:00;6.32;;;5.20;;
56083;SDS011;41958;52.416;13.428;2022-07-23T02:43:26;6.18;;;5.55;;
56083;SDS011;41958;52.416;13.428;2022-07-23T02:45:51;6.18;;;5.57;;
56083;SDS011;41958;52.416;13.428;2022-07-23T02:48:16;6.45;;;5.22;;
56083;SDS011;41958;52.416;13.428;2022-07-23T02:50:41;8.80;;;5.32;;
56083;SDS011;41958;52.416;13.428;2022-07-23T02:53:07;5.75;;;5.10;;
56083;SDS011;41958;52.416;13.428;2022-07-23T02:55:32;6.00;;;5.13;;
56083;SDS011;41958;52.416;13.428;2022-07-23T02:57:57;6.65;;;5.15;;
56083;SDS011;41958;52.416;13.428;2022-07-23T03:00:23;8.50;;;6.13;;
56083;SDS011;41958;52.416;13.428;2022-07-23T03:02:48;12.70;;;6.50;;
56083;SDS011;41958;52.416;13.428;2022-07-23T03:05:13;6.90;;;5.35;;
56083;SDS011;41958;52.416;13.428;2022-07-23T03:07:39;8.68;;;6.05;;
56083;SDS011;41958;52.416;13.428;2022-07-23T03:10:04;5.90;;;5.30;;
56083;SDS011;41958;52.416;13.428;2022-07-23T03:12:29;7.88;;;5.25;;
56083;SDS011;41958;52.416;13.428;2022-07-23T03:14:54;6.57;;;5.45;;
56083;SDS011;41958;52.416;13.428;2022-07-23T03:17:20;8.48;;;5.30;;
56083;SDS011;41958;52.416;13.428;2022-07-23T03:19:45;9.40;;;5.80;;
56083;SDS011;41958;52.416;13.428;2022-07-23T03:22:10;8.35;;;5.90;;
56083;SDS011;41958;52.416;13.428;2022-07-23T03:24:35;7.95;;;6.07;;
56083;SDS011;41958;52.416;13.428;2022-07-23T03:27:19;7.65;;;5.50;;
56083;SDS011;41958;52.416;13.428;2022-07-23T03:29:45;8.65;;;5.78;;
56083;SDS011;41958;52.416;13.428;2022-07-23T03:32:10;8.27;;;5.95;;
56083;SDS011;41958;52.416;13.428;2022-07-23T03:34:36;10.60;;;6.13;;
56083;SDS011;41958;52.416;13.428;2022-07-23T03:37:02;7.00;;;5.80;;
56083;SDS011;41958;52.416;13.428;2022-07-23T03:39:27;9.07;;;5.80;;
56083;SDS011;41958;52.416;13.428;2022-07-23T03:41:52;8.88;;;6.05;;
56083;SDS011;41958;52.416;13.428;2022-07-23T03:44:17;8.70;;;6.00;;
56083;SDS011;41958;52.416;13.428;2022-07-23T03:46:43;7.55;;;5.85;;
56083;SDS011;41958;52.416;13.428;2022-07-23T03:49:08;6.50;;;4.93;;
56083;SDS011;41958;52.416;13.428;2022-07-23T03:51:33;8.60;;;4.93;;
56083;SDS011;41958;52.416;13.428;2022-07-23T03:53:59;8.52;;;5.20;;
56083;SDS011;41958;52.416;13.428;2022-07-23T03:56:24;5.68;;;4.80;;
56083;SDS011;41958;52.416;13.428;2022-07-23T03:58:49;6.45;;;5.15;;
56083;SDS011;41958;52.416;13.428;2022-07-23T04:01:15;6.43;;;4.90;;
56083;SDS011;41958;52.416;13.428;2022-07-23T04:03:40;7.68;;;4.57;;
56083;SDS011;41958;52.416;13.428;2022-07-23T04:06:05;10.15;;;4.47;;
56083;SDS011;41958;52.416;13.428;2022-07-23T04:08:31;6.22;;;4.82;;
56083;SDS011;41958;52.416;13.428;2022-07-23T04:10:56;5.72;;;4.53;;
56083;SDS011;41958;52.416;13.428;2022-07-23T04:13:21;6.32;;;4.40;;
56083;SDS011;41958;52.416;13.428;2022-07-23T04:15:47;6.80;;;4.20;;
56083;SDS011;41958;52.416;13.428;2022-07-23T04:18:12;7.80;;;4.95;;
56083;SDS011;41958;52.416;13.428;2022-07-23T04:20:37;8.45;;;4.10;;
56083;SDS011;41958;52.416;13.428;2022-07-23T04:23:03;8.55;;;4.28;;
56083;SDS011;41958;52.416;13.428;2022-07-23T04:25:28;6.95;;;4.22;;
56083;SDS011;41958;52.416;13.428;2022-07-23T04:27:53;6.55;;;4.30;;
56083;SDS011;41958;52.416;13.428;2022-07-23T04:30:37;5.65;;;3.63;;
56083;SDS011;41958;52.416;13.428;2022-07-23T04:33:12;7.05;;;4.43;;
56083;SDS011;41958;52.416;13.428;2022-07-23T04:35:37;6.10;;;3.83;;
56083;SDS011;41958;52.416;13.428;2022-07-23T04:38:03;7.07;;;3.90;;
56083;SDS011;41958;52.416;13.428;2022-07-23T04:40:28;13.23;;;5.15;;
56083;SDS011;41958;52.416;13.428;2022-07-23T04:42:54;6.57;;;4.68;;
56083;SDS011;41958;52.416;13.428;2022-07-23T04:45:19;7.97;;;4.78;;
56083;SDS011;41958;52.416;13.428;2022-07-23T04:47:44;11.02;;;4.30;;
56083;SDS011;41958;52.416;13.428;2022-07-23T04:50:11;10.48;;;5.20;;
56083;SDS011;41958;52.416;13.428;2022-07-23T04:52:36;8.05;;;4.68;;
56083;SDS011;41958;52.416;13.428;2022-07-23T04:55:01;11.95;;;4.75;;
56083;SDS011;41958;52.416;13.428;2022-07-23T04:57:27;11.10;;;5.10;;
56083;SDS011;41958;52.416;13.428;2022-07-23T04:59:52;10.15;;;5.40;;
56083;SDS011;41958;52.416;13.428;2022-07-23T05:02:18;11.30;;;4.93;;
56083;SDS011;41958;52.416;13.428;2022-07-23T05:04:43;10.43;;;5.15;;
56083;SDS011;41958;52.416;13.428;2022-07-23T05:07:08;12.13;;;5.30;;
56083;SDS011;41958;52.416;13.428;2022-07-23T05:09:33;8.13;;;4.88;;
56083;SDS011;41958;52.416;13.428;2022-07-23T05:11:59;8.90;;;5.20;;
56083;SDS011;41958;52.416;13.428;2022-07-23T05:14:24;9.73;;;5.47;;
56083;SDS011;41958;52.416;13.428;2022-07-23T05:16:49;7.93;;;5.40;;
56083;SDS011;41958;52.416;13.428;2022-07-23T05:19:15;6.18;;;4.65;;
56083;SDS011;41958;52.416;13.428;2022-07-23T05:21:40;12.73;;;5.30;;
56083;SDS011;41958;52.416;13.428;2022-07-23T05:24:05;10.90;;;4.97;;
56083;SDS011;41958;52.416;13.428;2022-07-23T05:26:31;7.72;;;4.35;;
56083;SDS011;41958;52.416;13.428;2022-07-23T05:28:56;9.52;;;4.68;;
56083;SDS011;41958;52.416;13.428;2022-07-23T05:31:21;8.15;;;4.57;;
56083;SDS011;41958;52.416;13.428;2022-07-23T05:33:46;8.57;;;4.35;;
56083;SDS011;41958;52.416;13.428;2022-07-23T05:36:12;8.68;;;3.40;;
56083;SDS011;41958;52.416;13.428;2022-07-23T05:38:37;6.88;;;3.33;;
56083;SDS011;41958;52.416;13.428;2022-07-23T05:41:02;8.57;;;3.80;;
56083;SDS011;41958;52.416;13.428;2022-07-23T05:43:27;6.90;;;3.72;;
56083;SDS011;41958;52.416;13.428;2022-07-23T05:45:53;6.55;;;4.07;;
56083;SDS011;41958;52.416;13.428;2022-07-23T05:48:18;8.07;;;4.07;;
56083;SDS011;41958;52.416;13.428;2022-07-23T05:50:44;4.35;;;3.45;;
56083;SDS011;41958;52.416;13.428;2022-07-23T05:53:09;5.85;;;3.45;;
56083;SDS011;41958;52.416;13.428;2022-07-23T05:55:34;6.25;;;3.58;;
56083;SDS011;41958;52.416;13.428;2022-07-23T05:58:00;9.73;;;4.10;;
56083;SDS011;41958;52.416;13.428;2022-07-23T06:00:25;6.43;;;3.42;;
56083;SDS011;41958;52.416;13.428;2022-07-23T06:02:52;7.85;;;3.78;;
56083;SDS011;41958;52.416;13.428;2022-07-23T06:05:18;9.52;;;3.58;;
56083;SDS011;41958;52.416;13.428;2022-07-23T06:07:43;8.68;;;4.18;;
56083;SDS011;41958;52.416;13.428;2022-07-23T06:10:09;7.82;;;4.70;;
56083;SDS011;41958;52.416;13.428;2022-07-23T06:12:34;7.90;;;4.07;;
56083;SDS011;41958;52.416;13.428;2022-07-23T06:15:00;6.68;;;4.28;;
56083;SDS011;41958;52.416;13.428;2022-07-23T06:17:25;9.10;;;4.43;;
56083;SDS011;41958;52.416;13.428;2022-07-23T06:19:51;6.30;;;4.28;;
56083;SDS011;41958;52.416;13.428;2022-07-23T06:22:16;8.70;;;4.80;;
56083;SDS011;41958;52.416;13.428;2022-07-23T06:24:42;9.05;;;4.70;;
56083;SDS011;41958;52.416;13.428;2022-07-23T06:27:07;6.65;;;4.43;;
56083;SDS011;41958;52.416;13.428;2022-07-23T06:29:32;10.10;;;4.20;;
56083;SDS011;41958;52.416;13.428;2022-07-23T06:31:57;7.32;;;4.82;;
56083;SDS011;41958;52.416;13.428;2022-07-23T06:34:23;8.90;;;4.78;;
56083;SDS011;41958;52.416;13.428;2022-07-23T06:36:48;9.48;;;4.90;;
56083;SDS011;41958;52.416;13.428;2022-07-23T06:39:13;8.85;;;4.47;;
56083;SDS011;41958;52.416;13.428;2022-07-23T06:41:38;8.40;;;4.65;;
56083;SDS011;41958;52.416;13.428;2022-07-23T06:44:04;8.85;;;4.90;;
56083;SDS011;41958;52.416;13.428;2022-07-23T06:46:29;7.78;;;4.65;;
56083;SDS011;41958;52.416;13.428;2022-07-23T06:48:55;9.00;;;4.63;;
56083;SDS011;41958;52.416;13.428;2022-07-23T06:51:20;9.02;;;4.60;;
56083;SDS011;41958;52.416;13.428;2022-07-23T06:53:46;7.97;;;5.10;;
56083;SDS011;41958;52.416;13.428;2022-07-23T06:56:11;8.13;;;5.25;;
56083;SDS011;41958;52.416;13.428;2022-07-23T06:58:36;12.18;;;5.60;;
56083;SDS011;41958;52.416;13.428;2022-07-23T07:01:01;9.05;;;5.15;;
56083;SDS011;41958;52.416;13.428;2022-07-23T07:03:27;7.68;;;4.72;;
56083;SDS011;41958;52.416;13.428;2022-07-23T07:05:52;6.90;;;4.28;;
56083;SDS011;41958;52.416;13.428;2022-07-23T07:08:18;6.43;;;3.72;;
56083;SDS011;41958;52.416;13.428;2022-07-23T07:10:43;6.03;;;4.43;;
56083;SDS011;41958;52.416;13.428;2022-07-23T07:13:09;10.63;;;5.50;;
56083;SDS011;41958;52.416;13.428;2022-07-23T07:15:34;9.02;;;5.25;;
56083;SDS011;41958;52.416;13.428;2022-07-23T07:17:59;11.25;;;5.40;;
56083;SDS011;41958;52.416;13.428;2022-07-23T07:20:25;8.25;;;5.05;;
56083;SDS011;41958;52.416;13.428;2022-07-23T07:22:50;8.73;;;5.20;;
56083;SDS011;41958;52.416;13.428;2022-07-23T07:25:15;9.27;;;5.65;;
56083;SDS011;41958;52.416;13.428;2022-07-23T07:27:40;9.05;;;5.32;;
56083;SDS011;41958;52.416;13.428;2022-07-23T07:30:06;13.93;;;5.82;;
56083;SDS011;41958;52.416;13.428;2022-07-23T07:32:32;7.78;;;5.47;;
56083;SDS011;41958;52.416;13.428;2022-07-23T07:34:57;10.18;;;5.40;;
56083;SDS011;41958;52.416;13.428;2022-07-23T07:37:23;5.55;;;4.55;;
56083;SDS011;41958;52.416;13.428;2022-07-23T07:39:48;7.50;;;4.63;;
56083;SDS011;41958;52.416;13.428;2022-07-23T07:42:14;8.07;;;4.85;;
56083;SDS011;41958;52.416;13.428;2022-07-23T07:44:39;7.05;;;5.10;;
56083;SDS011;41958;52.416;13.428;2022-07-23T07:47:04;7.65;;;4.35;;
56083;SDS011;41958;52.416;13.428;2022-07-23T07:49:30;7.70;;;4.43;;
56083;SDS011;41958;52.416;13.428;2022-07-23T07:51:55;9.18;;;4.63;;
56083;SDS011;41958;52.416;13.428;2022-07-23T07:54:20;7.10;;;4.32;;
56083;SDS011;41958;52.416;13.428;2022-07-23T07:56:45;10.57;;;5.63;;
56083;SDS011;41958;52.416;13.428;2022-07-23T07:59:12;7.75;;;4.72;;
56083;SDS011;41958;52.416;13.428;2022-07-23T08:01:38;9.57;;;4.95;;
56083;SDS011;41958;52.416;13.428;2022-07-23T08:04:03;7.28;;;5.15;;
56083;SDS011;41958;52.416;13.428;2022-07-23T08:06:28;9.75;;;4.55;;
56083;SDS011;41958;52.416;13.428;2022-07-23T08:08:53;7.45;;;4.80;;
56083;SDS011;41958;52.416;13.428;2022-07-23T08:11:19;9.65;;;5.35;;
56083;SDS011;41958;52.416;13.428;2022-07-23T08:13:44;9.20;;;6.30;;
56083;SDS011;41958;52.416;13.428;2022-07-23T08:16:09;11.13;;;5.80;;
56083;SDS011;41958;52.416;13.428;2022-07-23T08:18:35;10.10;;;6.35;;
56083;SDS011;41958;52.416;13.428;2022-07-23T08:21:00;8.77;;;5.32;;
56083;SDS011;41958;52.416;13.428;2022-07-23T08:23:26;11.40;;;6.43;;
56083;SDS011;41958;52.416;13.428;2022-07-23T08:25:52;9.50;;;6.40;;
56083;SDS011;41958;52.416;13.428;2022-07-23T08:28:17;12.45;;;6.25;;
56083;SDS011;41958;52.416;13.428;2022-07-23T08:30:43;12.73;;;6.88;;
56083;SDS011;41958;52.416;13.428;2022-07-23T08:33:10;8.93;;;7.15;;
56083;SDS011;41958;52.416;13.428;2022-07-23T08:35:41;7.22;;;6.07;;
56083;SDS011;41958;52.416;13.428;2022-07-23T08:38:10;8.63;;;5.82;;
56083;SDS011;41958;52.416;13.428;2022-07-23T08:40:37;11.50;;;5.82;;
56083;SDS011;41958;52.416;13.428;2022-07-23T08:43:05;8.88;;;5.90;;
56083;SDS011;41958;52.416;13.428;2022-07-23T08:45:35;10.35;;;6.53;;
56083;SDS011;41958;52.416;13.428;2022-07-23T08:48:05;13.07;;;6.00;;
56083;SDS011;41958;52.416;13.428;2022-07-23T08:50:34;8.00;;;5.90;;
56083;SDS011;41958;52.416;13.428;2022-07-23T08:53:01;7.65;;;5.53;;
56083;SDS011;41958;52.416;13.428;2022-07-23T08:55:27;7.80;;;5.00;;
56083;SDS011;41958;52.416;13.428;2022-07-23T08:57:53;7.00;;;4.93;;
56083;SDS011;41958;52.416;13.428;2022-07-23T09:00:19;8.70;;;5.75;;
56083;SDS011;41958;52.416;13.428;2022-07-23T09:02:46;8.27;;;5.13;;
56083;SDS011;41958;52.416;13.428;2022-07-23T09:05:12;8.55;;;5.00;;
56083;SDS011;41958;52.416;13.428;2022-07-23T09:08:02;8.55;;;5.10;;
56083;SDS011;41958;52.416;13.428;2022-07-23T09:15:52;10.02;;;5.68;;
56083;SDS011;41958;52.416;13.428;2022-07-23T09:18:18;7.05;;;4.70;;
56083;SDS011;41958;52.416;13.428;2022-07-23T09:20:44;7.95;;;5.00;;
56083;SDS011;41958;52.416;13.428;2022-07-23T09:23:09;6.90;;;4.60;;
56083;SDS011;41958;52.416;13.428;2022-07-23T09:25:35;4.57;;;4.15;;
56083;SDS011;41958;52.416;13.428;2022-07-23T09:28:00;7.93;;;5.13;;
56083;SDS011;41958;52.416;13.428;2022-07-23T09:30:30;5.93;;;4.95;;
56083;SDS011;41958;52.416;13.428;2022-07-23T09:33:03;8.80;;;4.40;;
56083;SDS011;41958;52.416;13.428;2022-07-23T09:35:47;8.15;;;4.35;;
56083;SDS011;41958;52.416;13.428;2022-07-23T09:38:18;5.88;;;3.80;;
56083;SDS011;41958;52.416;13.428;2022-07-23T09:40:45;5.45;;;4.05;;
56083;SDS011;41958;52.416;13.428;2022-07-23T09:43:11;7.85;;;4.22;;
56083;SDS011;41958;52.416;13.428;2022-07-23T09:45:37;6.40;;;4.18;;
56083;SDS011;41958;52.416;13.428;2022-07-23T09:48:14;7.22;;;4.28;;
56083;SDS011;41958;52.416;13.428;2022-07-23T09:50:41;6.57;;;3.80;;
56083;SDS011;41958;52.416;13.428;2022-07-23T09:53:07;4.72;;;3.47;;
56083;SDS011;41958;52.416;13.428;2022-07-23T09:55:33;5.55;;;4.03;;
56083;SDS011;41958;52.416;13.428;2022-07-23T09:58:01;6.78;;;3.78;;
56083;SDS011;41958;52.416;13.428;2022-07-23T10:00:27;6.10;;;3.88;;
56083;SDS011;41958;52.416;13.428;2022-07-23T10:02:53;7.70;;;3.85;;
56083;SDS011;41958;52.416;13.428;2022-07-23T10:05:19;7.13;;;4.30;;
56083;SDS011;41958;52.416;13.428;2022-07-23T10:07:45;4.82;;;4.20;;
56083;SDS011;41958;52.416;13.428;2022-07-23T10:10:11;7.93;;;4.43;;
56083;SDS011;41958;52.416;13.428;2022-07-23T10:12:38;8.18;;;4.22;;
56083;SDS011;41958;52.416;13.428;2022-07-23T10:15:13;4.85;;;3.97;;
56083;SDS011;41958;52.416;13.428;2022-07-23T10:17:39;8.95;;;4.13;;
56083;SDS011;41958;52.416;13.428;2022-07-23T10:20:04;3.78;;;3.45;;
56083;SDS011;41958;52.416;13.428;2022-07-23T10:22:33;6.63;;;3.60;;
56083;SDS011;41958;52.416;13.428;2022-07-23T10:25:08;3.95;;;3.55;;
56083;SDS011;41958;52.416;13.428;2022-07-23T10:31:17;5.22;;;2.78;;
56083;SDS011;41958;52.416;13.428;2022-07-23T10:34:04;5.32;;;3.38;;
56083;SDS011;41958;52.416;13.428;2022-07-23T10:36:56;3.75;;;3.03;;
56083;SDS011;41958;52.416;13.428;2022-07-23T10:39:35;5.78;;;3.13;;
56083;SDS011;41958;52.416;13.428;2022-07-23T10:42:08;5.70;;;3.35;;
56083;SDS011;41958;52.416;13.428;2022-07-23T10:44:39;4.93;;;2.80;;
56083;SDS011;41958;52.416;13.428;2022-07-23T10:47:07;6.40;;;2.85;;
56083;SDS011;41958;52.416;13.428;2022-07-23T10:49:39;5.40;;;2.78;;
56083;SDS011;41958;52.416;13.428;2022-07-23T10:54:39;6.88;;;2.90;;
56083;SDS011;41958;52.416;13.428;2022-07-23T10:57:06;6.05;;;3.10;;
56083;SDS011;41958;52.416;13.428;2022-07-23T11:04:53;6.80;;;3.35;;
56083;SDS011;41958;52.416;13.428;2022-07-23T11:07:19;6.18;;;2.80;;
56083;SDS011;41958;52.416;13.428;2022-07-23T11:09:44;4.95;;;2.97;;
56083;SDS011;41958;52.416;13.428;2022-07-23T11:17:30;4.55;;;2.80;;
56083;SDS011;41958;52.416;13.428;2022-07-23T11:22:37;4.53;;;2.90;;
56083;SDS011;41958;52.416;13.428;2022-07-23T11:25:08;3.53;;;2.70;;
56083;SDS011;41958;52.416;13.428;2022-07-23T11:30:08;6.90;;;3.07;;
56083;SDS011;41958;52.416;13.428;2022-07-23T11:32:49;5.03;;;2.88;;
56083;SDS011;41958;52.416;13.428;2022-07-23T11:35:18;3.70;;;2.60;;
56083;SDS011;41958;52.416;13.428;2022-07-23T11:37:44;2.72;;;2.45;;
56083;SDS011;41958;52.416;13.428;2022-07-23T11:40:14;7.57;;;2.97;;
56083;SDS011;41958;52.416;13.428;2022-07-23T11:42:51;4.57;;;2.85;;
56083;SDS011;41958;52.416;13.428;2022-07-23T11:45:18;4.60;;;2.95;;
56083;SDS011;41958;52.416;13.428;2022-07-23T11:47:43;4.43;;;3.22;;
56083;SDS011;41958;52.416;13.428;2022-07-23T11:50:08;6.38;;;2.92;;
56083;SDS011;41958;52.416;13.428;2022-07-23T11:52:34;3.17;;;2.80;;
56083;SDS011;41958;52.416;13.428;2022-07-23T11:55:00;4.03;;;3.10;;
56083;SDS011;41958;52.416;13.428;2022-07-23T11:57:28;3.28;;;2.63;;
56083;SDS011;41958;52.416;13.428;2022-07-23T11:59:56;4.35;;;2.97;;
56083;SDS011;41958;52.416;13.428;2022-07-23T12:02:30;3.15;;;2.83;;
56083;SDS011;41958;52.416;13.428;2022-07-23T12:04:55;3.85;;;2.53;;
56083;SDS011;41958;52.416;13.428;2022-07-23T12:07:37;4.82;;;2.88;;
56083;SDS011;41958;52.416;13.428;2022-07-23T12:12:35;4.45;;;2.65;;
56083;SDS011;41958;52.416;13.428;2022-07-23T12:15:12;4.72;;;2.97;;
56083;SDS011;41958;52.416;13.428;2022-07-23T12:17:39;5.40;;;2.92;;
56083;SDS011;41958;52.416;13.428;2022-07-23T12:20:06;5.15;;;2.60;;
56083;SDS011;41958;52.416;13.428;2022-07-23T12:22:38;3.47;;;2.78;;
56083;SDS011;41958;52.416;13.428;2022-07-23T12:25:06;3.42;;;2.80;;
56083;SDS011;41958;52.416;13.428;2022-07-23T12:27:36;4.80;;;2.50;;
56083;SDS011;41958;52.416;13.428;2022-07-23T12:32:48;4.28;;;2.70;;
56083;SDS011;41958;52.416;13.428;2022-07-23T12:35:15;3.78;;;2.88;;
56083;SDS011;41958;52.416;13.428;2022-07-23T12:37:41;3.38;;;2.63;;
56083;SDS011;41958;52.416;13.428;2022-07-23T12:43:01;3.28;;;2.97;;
56083;SDS011;41958;52.416;13.428;2022-07-23T12:45:42;7.43;;;3.20;;
56083;SDS011;41958;52.416;13.428;2022-07-23T12:48:08;4.95;;;3.45;;
56083;SDS011;41958;52.416;13.428;2022-07-23T12:53:26;5.05;;;3.35;;
56083;SDS011;41958;52.416;13.428;2022-07-23T12:56:04;5.65;;;3.25;;
56083;SDS011;41958;52.416;13.428;2022-07-23T12:58:47;4.88;;;3.33;;
56083;SDS011;41958;52.416;13.428;2022-07-23T13:03:54;5.45;;;3.40;;
56083;SDS011;41958;52.416;13.428;2022-07-23T13:06:25;3.58;;;3.17;;
56083;SDS011;41958;52.416;13.428;2022-07-23T13:08:52;6.18;;;3.03;;
56083;SDS011;41958;52.416;13.428;2022-07-23T13:11:17;5.22;;;3.42;;
56083;SDS011;41958;52.416;13.428;2022-07-23T13:13:43;3.72;;;3.35;;
56083;SDS011;41958;52.416;13.428;2022-07-23T13:16:08;5.20;;;3.35;;
56083;SDS011;41958;52.416;13.428;2022-07-23T13:18:33;3.75;;;3.20;;
56083;SDS011;41958;52.416;13.428;2022-07-23T13:20:59;4.05;;;2.70;;
56083;SDS011;41958;52.416;13.428;2022-07-23T13:23:24;4.53;;;3.30;;
56083;SDS011;41958;52.416;13.428;2022-07-23T13:25:50;3.42;;;3.13;;
56083;SDS011;41958;52.416;13.428;2022-07-23T13:28:16;3.30;;;2.78;;
56083;SDS011;41958;52.416;13.428;2022-07-23T13:30:43;4.10;;;3.40;;
56083;SDS011;41958;52.416;13.428;2022-07-23T13:33:10;5.30;;;3.17;;
56083;SDS011;41958;52.416;13.428;2022-07-23T13:35:36;5.25;;;3.00;;
56083;SDS011;41958;52.416;13.428;2022-07-23T13:38:02;5.53;;;3.03;;
56083;SDS011;41958;52.416;13.428;2022-07-23T13:40:29;2.83;;;2.55;;
56083;SDS011;41958;52.416;13.428;2022-07-23T13:42:54;2.60;;;2.40;;
56083;SDS011;41958;52.416;13.428;2022-07-23T13:45:19;3.80;;;2.40;;
56083;SDS011;41958;52.416;13.428;2022-07-23T13:47:45;4.85;;;2.80;;
56083;SDS011;41958;52.416;13.428;2022-07-23T13:50:10;4.07;;;2.80;;
56083;SDS011;41958;52.416;13.428;2022-07-23T13:52:35;4.20;;;2.88;;
56083;SDS011;41958;52.416;13.428;2022-07-23T13:55:01;3.83;;;2.23;;
56083;SDS011;41958;52.416;13.428;2022-07-23T13:57:28;2.50;;;2.30;;
56083;SDS011;41958;52.416;13.428;2022-07-23T13:59:54;3.63;;;2.80;;
56083;SDS011;41958;52.416;13.428;2022-07-23T14:02:19;3.20;;;2.63;;
56083;SDS011;41958;52.416;13.428;2022-07-23T14:04:44;3.88;;;2.60;;
56083;SDS011;41958;52.416;13.428;2022-07-23T14:07:10;2.83;;;2.60;;
56083;SDS011;41958;52.416;13.428;2022-07-23T14:09:35;6.88;;;2.83;;
56083;SDS011;41958;52.416;13.428;2022-07-23T14:12:01;3.10;;;2.00;;
56083;SDS011;41958;52.416;13.428;2022-07-23T14:14:27;3.30;;;2.30;;
56083;SDS011;41958;52.416;13.428;2022-07-23T14:16:52;3.47;;;2.30;;
56083;SDS011;41958;52.416;13.428;2022-07-23T14:19:18;3.03;;;2.13;;
56083;SDS011;41958;52.416;13.428;2022-07-23T14:21:43;2.97;;;2.30;;
56083;SDS011;41958;52.416;13.428;2022-07-23T14:24:08;2.75;;;2.08;;
56083;SDS011;41958;52.416;13.428;2022-07-23T14:26:34;2.23;;;2.10;;
56083;SDS011;41958;52.416;13.428;2022-07-23T14:28:59;2.13;;;1.95;;
56083;SDS011;41958;52.416;13.428;2022-07-23T14:31:24;2.33;;;1.92;;
56083;SDS011;41958;52.416;13.428;2022-07-23T14:33:50;4.63;;;1.90;;
56083;SDS011;41958;52.416;13.428;2022-07-23T14:36:15;2.92;;;1.70;;
56083;SDS011;41958;52.416;13.428;2022-07-23T14:38:41;2.42;;;2.00;;
56083;SDS011;41958;52.416;13.428;2022-07-23T14:41:07;3.25;;;1.80;;
56083;SDS011;41958;52.416;13.428;2022-07-23T14:43:33;2.67;;;1.60;;
56083;SDS011;41958;52.416;13.428;2022-07-23T14:45:58;2.30;;;1.75;;
56083;SDS011;41958;52.416;13.428;2022-07-23T14:48:24;3.80;;;1.67;;
56083;SDS011;41958;52.416;13.428;2022-07-23T14:50:49;2.10;;;1.60;;
56083;SDS011;41958;52.416;13.428;2022-07-23T14:53:14;1.70;;;1.60;;
56083;SDS011;41958;52.416;13.428;2022-07-23T14:55:40;1.60;;;1.50;;
56083;SDS011;41958;52.416;13.428;2022-07-23T14:58:05;3.45;;;1.60;;
56083;SDS011;41958;52.416;13.428;2022-07-23T15:00:30;5.68;;;1.70;;
56083;SDS011;41958;52.416;13.428;2022-07-23T15:02:56;1.95;;;1.75;;
56083;SDS011;41958;52.416;13.428;2022-07-23T15:05:21;2.20;;;2.00;;
56083;SDS011;41958;52.416;13.428;2022-07-23T15:07:47;3.60;;;1.80;;
56083;SDS011;41958;52.416;13.428;2022-07-23T15:10:13;1.90;;;1.80;;